Salina, KS

2:02 AM CDT on October 31, 2014 (GMT -0500)
Willis St Salina, KS | Change Station
CLOSE
Current Station
Personal Weather Station
Location: Salina, KS
Elevation: 1237 ft
Nearby Weather Stations
Active Advisory: Freeze Warning

Elev 1237 ft 38.81 °N, 97.62 °W | Updated 5 seconds ago

Mostly Cloudy
Mostly Cloudy
46.7 °F
Feels Like 45 °F
N
4.0
Wind Variable Wind from East
Gusts 12.0 mph

Today
High -- | Low -- °F
--% Chance of Precip.
Yesterday
High -- | Low -- °F
Precip. -- in
7:56 AM 6:31 PM
First Quarter, 52% visible
Pressure 30.38 in
Visibility 10.0 miles
Clouds Overcast 2000 ft
Windchill 45 °F
Dew Point 39 °F
Humidity 75%
Rainfall 0.00 in
Snow Depth Not available.
UV 0 out of 12
Pollen 2.40 out of 12
Air Quality Not available.
Flu Activity Not available.
METAR KSLN 310653Z AUTO 35012KT 10SM OVC020 08/03 A3038 RMK AO2 SLP285 T00780028

More Conditions Fewer Conditions

Pressure 30.38 in
Visibility 10.0 miles
Clouds Overcast 2000 ft
Windchill 45 °F
Dew Point 39 °F
Humidity 75%
Rainfall 0.00 in
Snow Depth Not available.
UV 0 out of 12
Pollen 2.40 out of 12
Air Quality Not available.
Flu Activity Not available.
METAR KSLN 310653Z AUTO 35012KT 10SM OVC020 08/03 A3038 RMK AO2 SLP285 T00780028

More Conditions Fewer Conditions

10-Day Weather Forecast

Almanac

Astronomy

Oct. 31, 2014 Rise Set
Actual Time
Civil Twilight
Nautical Twilight
Astronomical Twilight
Moon
Length of Visible Light
Length of Day
Tomorrow will be .
, % of the Moon is Illuminated

Today's Extremes

State Highs State Lows

Community

WunderPhotos

Upload Photos

1,766,571 photos uploaded!

WunderBlogs® & News

Nearby

Air Quality

  Air Quality AQ Index Pollutant
Not available.

Snow Depth

Station Depth Elevation

Earthquake Activity

City Distance Mag. Time & Date
Minimum magnitude displayed is 2.5.

Coastal Water Temperatures

Place Temperature

Nearby Weather Stations